sensor_id;sensor_type;location;lat;lon;timestamp;temperature;humidity
35962;DHT22;22044;48.298;10.008;2023-03-18T00:00:39;7.70;99.90
35962;DHT22;22044;48.298;10.008;2023-03-18T00:03:25;7.70;99.90
35962;DHT22;22044;48.298;10.008;2023-03-18T00:06:15;7.70;99.90
35962;DHT22;22044;48.298;10.008;2023-03-18T00:09:02;7.60;99.90
35962;DHT22;22044;48.298;10.008;2023-03-18T00:11:48;7.60;99.90
35962;DHT22;22044;48.298;10.008;2023-03-18T00:14:34;7.70;99.90
35962;DHT22;22044;48.298;10.008;2023-03-18T00:17:19;7.70;99.90
35962;DHT22;22044;48.298;10.008;2023-03-18T00:20:06;7.70;99.90
35962;DHT22;22044;48.298;10.008;2023-03-18T00:22:54;7.70;99.90
35962;DHT22;22044;48.298;10.008;2023-03-18T00:25:40;7.70;99.90
35962;DHT22;22044;48.298;10.008;2023-03-18T00:28:27;7.70;99.90
35962;DHT22;22044;48.298;10.008;2023-03-18T00:31:12;7.70;99.90
35962;DHT22;22044;48.298;10.008;2023-03-18T00:33:59;7.70;99.90
35962;DHT22;22044;48.298;10.008;2023-03-18T00:36:44;7.70;99.90
35962;DHT22;22044;48.298;10.008;2023-03-18T00:39:35;7.70;99.90
35962;DHT22;22044;48.298;10.008;2023-03-18T00:42:20;7.70;99.90
35962;DHT22;22044;48.298;10.008;2023-03-18T00:45:08;7.70;99.90
35962;DHT22;22044;48.298;10.008;2023-03-18T00:47:54;7.60;99.90
35962;DHT22;22044;48.298;10.008;2023-03-18T00:50:40;7.60;99.90
35962;DHT22;22044;48.298;10.008;2023-03-18T00:53:26;7.70;99.90
35962;DHT22;22044;48.298;10.008;2023-03-18T00:56:13;7.60;99.90
35962;DHT22;22044;48.298;10.008;2023-03-18T00:58:59;7.60;99.90
35962;DHT22;22044;48.298;10.008;2023-03-18T01:01:45;7.60;99.90
35962;DHT22;22044;48.298;10.008;2023-03-18T01:04:33;7.60;99.90
35962;DHT22;22044;48.298;10.008;2023-03-18T01:07:18;7.50;99.90
35962;DHT22;22044;48.298;10.008;2023-03-18T01:10:07;7.50;99.90
35962;DHT22;22044;48.298;10.008;2023-03-18T01:12:55;7.50;99.90
35962;DHT22;22044;48.298;10.008;2023-03-18T01:15:41;7.50;99.90
35962;DHT22;22044;48.298;10.008;2023-03-18T01:18:27;7.50;99.90
35962;DHT22;22044;48.298;10.008;2023-03-18T01:21:13;7.50;99.90
35962;DHT22;22044;48.298;10.008;2023-03-18T01:24:08;7.50;99.90
35962;DHT22;22044;48.298;10.008;2023-03-18T01:26:54;7.50;99.90
35962;DHT22;22044;48.298;10.008;2023-03-18T01:29:42;7.40;99.90
35962;DHT22;22044;48.298;10.008;2023-03-18T01:32:34;7.40;99.90
35962;DHT22;22044;48.298;10.008;2023-03-18T01:35:21;7.40;99.90
35962;DHT22;22044;48.298;10.008;2023-03-18T01:38:08;7.40;99.90
35962;DHT22;22044;48.298;10.008;2023-03-18T01:40:53;7.40;99.90
35962;DHT22;22044;48.298;10.008;2023-03-18T01:43:41;7.40;99.90
35962;DHT22;22044;48.298;10.008;2023-03-18T01:46:35;7.40;99.90
35962;DHT22;22044;48.298;10.008;2023-03-18T01:49:24;7.30;99.90
35962;DHT22;22044;48.298;10.008;2023-03-18T01:52:15;7.20;99.90
35962;DHT22;22044;48.298;10.008;2023-03-18T01:55:04;7.00;99.90
35962;DHT22;22044;48.298;10.008;2023-03-18T01:57:50;6.90;99.90
35962;DHT22;22044;48.298;10.008;2023-03-18T02:00:40;6.90;99.90
35962;DHT22;22044;48.298;10.008;2023-03-18T02:03:28;6.90;99.90
35962;DHT22;22044;48.298;10.008;2023-03-18T02:06:13;6.90;99.90
35962;DHT22;22044;48.298;10.008;2023-03-18T02:09:00;6.90;99.90
35962;DHT22;22044;48.298;10.008;2023-03-18T02:11:47;6.90;99.90
35962;DHT22;22044;48.298;10.008;2023-03-18T02:14:34;6.90;99.90
35962;DHT22;22044;48.298;10.008;2023-03-18T02:17:23;6.90;99.90
35962;DHT22;22044;48.298;10.008;2023-03-18T02:20:19;6.70;99.90
35962;DHT22;22044;48.298;10.008;2023-03-18T02:23:11;6.70;99.90
35962;DHT22;22044;48.298;10.008;2023-03-18T02:26:06;6.70;99.90
35962;DHT22;22044;48.298;10.008;2023-03-18T02:28:58;6.70;99.90
35962;DHT22;22044;48.298;10.008;2023-03-18T02:31:54;6.70;99.90
35962;DHT22;22044;48.298;10.008;2023-03-18T02:34:42;6.80;99.90
35962;DHT22;22044;48.298;10.008;2023-03-18T02:37:28;6.80;99.90
35962;DHT22;22044;48.298;10.008;2023-03-18T02:40:16;6.80;99.90
35962;DHT22;22044;48.298;10.008;2023-03-18T02:43:20;6.90;99.90
35962;DHT22;22044;48.298;10.008;2023-03-18T02:46:30;6.80;99.90
35962;DHT22;22044;48.298;10.008;2023-03-18T02:49:17;6.90;99.90
35962;DHT22;22044;48.298;10.008;2023-03-18T02:52:04;6.90;99.90
35962;DHT22;22044;48.298;10.008;2023-03-18T02:54:50;6.90;99.90
35962;DHT22;22044;48.298;10.008;2023-03-18T02:57:36;6.90;99.90
35962;DHT22;22044;48.298;10.008;2023-03-18T03:00:23;6.90;99.90
35962;DHT22;22044;48.298;10.008;2023-03-18T03:03:10;7.00;99.90
35962;DHT22;22044;48.298;10.008;2023-03-18T03:05:55;7.00;99.90
35962;DHT22;22044;48.298;10.008;2023-03-18T03:08:42;7.00;99.90
35962;DHT22;22044;48.298;10.008;2023-03-18T03:11:28;7.10;99.90
35962;DHT22;22044;48.298;10.008;2023-03-18T03:14:19;7.00;99.90
35962;DHT22;22044;48.298;10.008;2023-03-18T03:17:08;7.00;99.90
35962;DHT22;22044;48.298;10.008;2023-03-18T03:19:55;6.90;99.90
35962;DHT22;22044;48.298;10.008;2023-03-18T03:22:41;6.90;99.90
35962;DHT22;22044;48.298;10.008;2023-03-18T03:25:26;6.90;99.90
35962;DHT22;22044;48.298;10.008;2023-03-18T03:28:14;6.90;99.90
35962;DHT22;22044;48.298;10.008;2023-03-18T03:31:00;6.80;99.90
35962;DHT22;22044;48.298;10.008;2023-03-18T03:33:46;6.80;99.90
35962;DHT22;22044;48.298;10.008;2023-03-18T03:36:33;6.80;99.90
35962;DHT22;22044;48.298;10.008;2023-03-18T03:39:19;6.60;99.90
35962;DHT22;22044;48.298;10.008;2023-03-18T03:42:05;6.60;99.90
35962;DHT22;22044;48.298;10.008;2023-03-18T03:44:50;6.60;99.90
35962;DHT22;22044;48.298;10.008;2023-03-18T03:47:36;6.70;99.90
35962;DHT22;22044;48.298;10.008;2023-03-18T03:50:22;6.60;99.90
35962;DHT22;22044;48.298;10.008;2023-03-18T03:53:09;6.50;99.90
35962;DHT22;22044;48.298;10.008;2023-03-18T03:55:55;6.50;99.90
35962;DHT22;22044;48.298;10.008;2023-03-18T03:58:40;6.50;99.90
35962;DHT22;22044;48.298;10.008;2023-03-18T04:01:26;6.20;99.90
35962;DHT22;22044;48.298;10.008;2023-03-18T04:04:14;6.20;99.90
35962;DHT22;22044;48.298;10.008;2023-03-18T04:07:01;6.10;99.90
35962;DHT22;22044;48.298;10.008;2023-03-18T04:09:49;6.10;99.90
35962;DHT22;22044;48.298;10.008;2023-03-18T04:12:35;6.00;99.90
35962;DHT22;22044;48.298;10.008;2023-03-18T04:15:21;6.00;99.90
35962;DHT22;22044;48.298;10.008;2023-03-18T04:18:09;5.90;99.90
35962;DHT22;22044;48.298;10.008;2023-03-18T04:20:56;6.00;99.90
35962;DHT22;22044;48.298;10.008;2023-03-18T04:24:02;6.00;99.90
35962;DHT22;22044;48.298;10.008;2023-03-18T04:26:49;6.00;99.90
35962;DHT22;22044;48.298;10.008;2023-03-18T04:29:34;6.00;99.90
35962;DHT22;22044;48.298;10.008;2023-03-18T04:32:20;5.90;99.90
35962;DHT22;22044;48.298;10.008;2023-03-18T04:35:07;6.00;99.90
35962;DHT22;22044;48.298;10.008;2023-03-18T04:37:54;6.00;99.90
35962;DHT22;22044;48.298;10.008;2023-03-18T04:40:41;6.10;99.90
35962;DHT22;22044;48.298;10.008;2023-03-18T04:43:28;6.10;99.90
35962;DHT22;22044;48.298;10.008;2023-03-18T04:46:14;6.10;99.90
35962;DHT22;22044;48.298;10.008;2023-03-18T04:49:02;6.20;99.90
35962;DHT22;22044;48.298;10.008;2023-03-18T04:51:49;6.10;99.90
35962;DHT22;22044;48.298;10.008;2023-03-18T04:54:44;5.80;99.90
35962;DHT22;22044;48.298;10.008;2023-03-18T04:57:30;5.60;99.90
35962;DHT22;22044;48.298;10.008;2023-03-18T05:00:21;5.40;99.90
35962;DHT22;22044;48.298;10.008;2023-03-18T05:03:11;5.60;99.90
35962;DHT22;22044;48.298;10.008;2023-03-18T05:05:57;5.60;99.90
35962;DHT22;22044;48.298;10.008;2023-03-18T05:08:52;5.50;99.90
35962;DHT22;22044;48.298;10.008;2023-03-18T05:11:41;5.60;99.90
35962;DHT22;22044;48.298;10.008;2023-03-18T05:14:40;5.60;99.90
35962;DHT22;22044;48.298;10.008;2023-03-18T05:17:28;5.70;99.90
35962;DHT22;22044;48.298;10.008;2023-03-18T05:20:18;5.60;99.90
35962;DHT22;22044;48.298;10.008;2023-03-18T05:23:05;5.50;99.90
35962;DHT22;22044;48.298;10.008;2023-03-18T05:26:01;5.50;99.90
35962;DHT22;22044;48.298;10.008;2023-03-18T05:28:47;5.60;99.90
35962;DHT22;22044;48.298;10.008;2023-03-18T05:31:50;5.70;99.90
35962;DHT22;22044;48.298;10.008;2023-03-18T05:34:39;5.80;99.90
35962;DHT22;22044;48.298;10.008;2023-03-18T05:37:26;5.90;99.90
35962;DHT22;22044;48.298;10.008;2023-03-18T05:40:22;5.80;99.90
35962;DHT22;22044;48.298;10.008;2023-03-18T05:43:25;5.80;99.90
35962;DHT22;22044;48.298;10.008;2023-03-18T05:46:14;5.80;99.90
35962;DHT22;22044;48.298;10.008;2023-03-18T05:49:25;5.60;99.90
35962;DHT22;22044;48.298;10.008;2023-03-18T05:52:36;5.60;99.90
35962;DHT22;22044;48.298;10.008;2023-03-18T05:55:27;5.70;99.90
35962;DHT22;22044;48.298;10.008;2023-03-18T05:58:13;5.70;99.90
35962;DHT22;22044;48.298;10.008;2023-03-18T06:01:01;5.80;99.90
35962;DHT22;22044;48.298;10.008;2023-03-18T06:03:46;5.90;99.90
35962;DHT22;22044;48.298;10.008;2023-03-18T06:06:32;5.90;99.90
35962;DHT22;22044;48.298;10.008;2023-03-18T06:09:20;5.90;99.90
35962;DHT22;22044;48.298;10.008;2023-03-18T06:12:06;5.90;99.90
35962;DHT22;22044;48.298;10.008;2023-03-18T06:14:52;5.90;99.90
35962;DHT22;22044;48.298;10.008;2023-03-18T06:17:39;6.00;99.90
35962;DHT22;22044;48.298;10.008;2023-03-18T06:20:25;6.00;99.90
35962;DHT22;22044;48.298;10.008;2023-03-18T06:23:11;6.00;99.90
35962;DHT22;22044;48.298;10.008;2023-03-18T06:25:59;6.00;99.90
35962;DHT22;22044;48.298;10.008;2023-03-18T06:28:50;6.10;99.90
35962;DHT22;22044;48.298;10.008;2023-03-18T06:31:35;5.90;99.90
35962;DHT22;22044;48.298;10.008;2023-03-18T06:34:23;5.90;99.90
35962;DHT22;22044;48.298;10.008;2023-03-18T06:37:09;6.00;99.90
35962;DHT22;22044;48.298;10.008;2023-03-18T06:39:55;6.10;99.90
35962;DHT22;22044;48.298;10.008;2023-03-18T06:42:42;6.10;99.90
35962;DHT22;22044;48.298;10.008;2023-03-18T06:45:42;5.80;99.90
35962;DHT22;22044;48.298;10.008;2023-03-18T06:48:27;5.50;99.90
35962;DHT22;22044;48.298;10.008;2023-03-18T06:51:14;5.40;99.90
35962;DHT22;22044;48.298;10.008;2023-03-18T06:54:01;5.40;99.90
35962;DHT22;22044;48.298;10.008;2023-03-18T06:56:49;5.40;99.90
35962;DHT22;22044;48.298;10.008;2023-03-18T06:59:37;5.50;99.90
35962;DHT22;22044;48.298;10.008;2023-03-18T07:02:23;5.70;99.90
35962;DHT22;22044;48.298;10.008;2023-03-18T07:05:12;5.80;99.90
35962;DHT22;22044;48.298;10.008;2023-03-18T07:07:59;5.90;99.90
35962;DHT22;22044;48.298;10.008;2023-03-18T07:10:44;6.10;99.90
35962;DHT22;22044;48.298;10.008;2023-03-18T07:13:32;6.20;99.90
35962;DHT22;22044;48.298;10.008;2023-03-18T07:16:22;6.40;99.90
35962;DHT22;22044;48.298;10.008;2023-03-18T07:19:07;6.60;99.90
35962;DHT22;22044;48.298;10.008;2023-03-18T07:21:55;6.80;99.90
35962;DHT22;22044;48.298;10.008;2023-03-18T07:24:42;7.00;99.90
35962;DHT22;22044;48.298;10.008;2023-03-18T07:27:29;7.20;99.90
35962;DHT22;22044;48.298;10.008;2023-03-18T07:30:14;7.40;99.90
35962;DHT22;22044;48.298;10.008;2023-03-18T07:33:02;7.60;99.90
35962;DHT22;22044;48.298;10.008;2023-03-18T07:35:48;7.80;99.90
35962;DHT22;22044;48.298;10.008;2023-03-18T07:38:34;7.90;99.90
35962;DHT22;22044;48.298;10.008;2023-03-18T07:41:19;8.00;99.90
35962;DHT22;22044;48.298;10.008;2023-03-18T07:44:05;8.10;99.90
35962;DHT22;22044;48.298;10.008;2023-03-18T07:46:51;8.30;99.90
35962;DHT22;22044;48.298;10.008;2023-03-18T07:49:38;8.40;99.90
35962;DHT22;22044;48.298;10.008;2023-03-18T07:52:25;8.40;99.90
35962;DHT22;22044;48.298;10.008;2023-03-18T07:55:10;8.50;99.90
35962;DHT22;22044;48.298;10.008;2023-03-18T07:57:56;8.60;99.90
35962;DHT22;22044;48.298;10.008;2023-03-18T08:00:42;8.70;99.90
35962;DHT22;22044;48.298;10.008;2023-03-18T08:03:28;8.80;99.90
35962;DHT22;22044;48.298;10.008;2023-03-18T08:06:15;8.90;99.90
35962;DHT22;22044;48.298;10.008;2023-03-18T08:09:02;9.00;99.90
35962;DHT22;22044;48.298;10.008;2023-03-18T08:11:48;9.30;99.90
35962;DHT22;22044;48.298;10.008;2023-03-18T08:14:33;9.50;99.90
35962;DHT22;22044;48.298;10.008;2023-03-18T08:17:19;9.60;99.90
35962;DHT22;22044;48.298;10.008;2023-03-18T08:20:06;9.70;99.90
35962;DHT22;22044;48.298;10.008;2023-03-18T08:22:52;9.80;99.90
35962;DHT22;22044;48.298;10.008;2023-03-18T08:25:39;9.90;99.90
35962;DHT22;22044;48.298;10.008;2023-03-18T08:28:24;10.20;99.90
35962;DHT22;22044;48.298;10.008;2023-03-18T08:31:10;10.40;99.90
35962;DHT22;22044;48.298;10.008;2023-03-18T08:33:57;10.60;99.90
35962;DHT22;22044;48.298;10.008;2023-03-18T08:36:44;10.60;99.90
35962;DHT22;22044;48.298;10.008;2023-03-18T08:39:31;10.80;99.90
35962;DHT22;22044;48.298;10.008;2023-03-18T08:42:17;10.90;99.90
35962;DHT22;22044;48.298;10.008;2023-03-18T08:45:03;11.00;99.90
35962;DHT22;22044;48.298;10.008;2023-03-18T08:47:49;11.10;99.90
35962;DHT22;22044;48.298;10.008;2023-03-18T08:50:35;11.20;99.90
35962;DHT22;22044;48.298;10.008;2023-03-18T08:53:21;11.30;99.90
35962;DHT22;22044;48.298;10.008;2023-03-18T08:56:08;11.50;99.90
35962;DHT22;22044;48.298;10.008;2023-03-18T08:58:54;11.60;99.90
35962;DHT22;22044;48.298;10.008;2023-03-18T09:01:39;11.90;99.90
35962;DHT22;22044;48.298;10.008;2023-03-18T09:04:25;12.10;99.90
35962;DHT22;22044;48.298;10.008;2023-03-18T09:07:11;12.10;99.90
35962;DHT22;22044;48.298;10.008;2023-03-18T09:09:57;12.10;99.90
35962;DHT22;22044;48.298;10.008;2023-03-18T09:12:45;12.10;99.90
35962;DHT22;22044;48.298;10.008;2023-03-18T09:15:33;12.20;99.90
35962;DHT22;22044;48.298;10.008;2023-03-18T09:18:18;12.50;99.90
35962;DHT22;22044;48.298;10.008;2023-03-18T09:21:06;12.70;99.90
35962;DHT22;22044;48.298;10.008;2023-03-18T09:23:52;12.90;99.90
35962;DHT22;22044;48.298;10.008;2023-03-18T09:26:37;13.10;99.90
35962;DHT22;22044;48.298;10.008;2023-03-18T09:29:25;13.30;99.90
35962;DHT22;22044;48.298;10.008;2023-03-18T09:32:11;13.50;99.90
35962;DHT22;22044;48.298;10.008;2023-03-18T09:34:57;13.30;99.90
35962;DHT22;22044;48.298;10.008;2023-03-18T09:37:42;13.30;99.90
35962;DHT22;22044;48.298;10.008;2023-03-18T09:40:29;13.30;99.90
35962;DHT22;22044;48.298;10.008;2023-03-18T09:43:28;13.40;99.90
35962;DHT22;22044;48.298;10.008;2023-03-18T09:46:26;13.40;99.90
35962;DHT22;22044;48.298;10.008;2023-03-18T09:49:27;13.50;99.90
35962;DHT22;22044;48.298;10.008;2023-03-18T09:52:21;13.50;99.90
35962;DHT22;22044;48.298;10.008;2023-03-18T09:55:14;13.60;99.90
35962;DHT22;22044;48.298;10.008;2023-03-18T09:58:12;13.80;99.90
35962;DHT22;22044;48.298;10.008;2023-03-18T10:01:02;14.10;99.90
35962;DHT22;22044;48.298;10.008;2023-03-18T10:03:54;14.30;99.90
35962;DHT22;22044;48.298;10.008;2023-03-18T10:06:44;14.30;99.90
35962;DHT22;22044;48.298;10.008;2023-03-18T10:09:34;14.50;99.90
35962;DHT22;22044;48.298;10.008;2023-03-18T10:12:26;14.70;99.90
35962;DHT22;22044;48.298;10.008;2023-03-18T10:15:17;14.80;99.90
35962;DHT22;22044;48.298;10.008;2023-03-18T10:18:10;14.70;99.90
35962;DHT22;22044;48.298;10.008;2023-03-18T10:21:10;14.60;99.90
35962;DHT22;22044;48.298;10.008;2023-03-18T10:24:08;14.70;99.90
35962;DHT22;22044;48.298;10.008;2023-03-18T10:27:07;14.70;99.90
35962;DHT22;22044;48.298;10.008;2023-03-18T10:29:58;14.80;99.90
35962;DHT22;22044;48.298;10.008;2023-03-18T10:32:54;15.20;99.90
35962;DHT22;22044;48.298;10.008;2023-03-18T10:35:47;15.40;99.90
35962;DHT22;22044;48.298;10.008;2023-03-18T10:38:38;15.20;99.90
35962;DHT22;22044;48.298;10.008;2023-03-18T10:41:29;15.30;99.90
35962;DHT22;22044;48.298;10.008;2023-03-18T10:44:19;15.60;99.90
35962;DHT22;22044;48.298;10.008;2023-03-18T10:47:12;15.50;99.90
35962;DHT22;22044;48.298;10.008;2023-03-18T10:50:02;15.50;99.90
35962;DHT22;22044;48.298;10.008;2023-03-18T10:52:55;15.70;99.90
35962;DHT22;22044;48.298;10.008;2023-03-18T10:55:49;15.80;99.90
35962;DHT22;22044;48.298;10.008;2023-03-18T10:58:39;16.00;99.90
35962;DHT22;22044;48.298;10.008;2023-03-18T11:01:27;16.20;99.90
35962;DHT22;22044;48.298;10.008;2023-03-18T11:04:15;16.50;99.90
35962;DHT22;22044;48.298;10.008;2023-03-18T11:07:04;16.90;99.90
35962;DHT22;22044;48.298;10.008;2023-03-18T11:09:52;16.90;99.70
35962;DHT22;22044;48.298;10.008;2023-03-18T11:12:39;16.90;96.00
35962;DHT22;22044;48.298;10.008;2023-03-18T11:15:25;16.80;95.90
35962;DHT22;22044;48.298;10.008;2023-03-18T11:18:14;16.80;96.40
35962;DHT22;22044;48.298;10.008;2023-03-18T11:21:00;16.80;97.00
35962;DHT22;22044;48.298;10.008;2023-03-18T11:24:00;16.80;97.50
35962;DHT22;22044;48.298;10.008;2023-03-18T11:27:23;16.90;98.30
35962;DHT22;22044;48.298;10.008;2023-03-18T11:30:21;16.90;97.60
35962;DHT22;22044;48.298;10.008;2023-03-18T11:33:13;17.10;98.40
35962;DHT22;22044;48.298;10.008;2023-03-18T11:36:03;17.10;97.20
35962;DHT22;22044;48.298;10.008;2023-03-18T11:38:56;17.30;98.10
35962;DHT22;22044;48.298;10.008;2023-03-18T11:41:42;17.40;97.90
35962;DHT22;22044;48.298;10.008;2023-03-18T11:44:30;17.30;95.70
35962;DHT22;22044;48.298;10.008;2023-03-18T11:47:20;17.30;96.30
35962;DHT22;22044;48.298;10.008;2023-03-18T11:50:09;17.20;97.20
35962;DHT22;22044;48.298;10.008;2023-03-18T11:53:06;16.80;97.70
35962;DHT22;22044;48.298;10.008;2023-03-18T11:55:57;16.80;98.50
35962;DHT22;22044;48.298;10.008;2023-03-18T12:02:25;17.40;99.90
35962;DHT22;22044;48.298;10.008;2023-03-18T12:05:28;17.50;98.30
35962;DHT22;22044;48.298;10.008;2023-03-18T12:08:24;17.50;97.30
35962;DHT22;22044;48.298;10.008;2023-03-18T12:11:20;17.40;97.20
35962;DHT22;22044;48.298;10.008;2023-03-18T12:14:14;17.20;99.50
35962;DHT22;22044;48.298;10.008;2023-03-18T12:17:12;17.40;98.10
35962;DHT22;22044;48.298;10.008;2023-03-18T12:23:27;17.40;97.90
35962;DHT22;22044;48.298;10.008;2023-03-18T12:26:23;17.40;99.90
35962;DHT22;22044;48.298;10.008;2023-03-18T12:29:33;17.60;98.90
35962;DHT22;22044;48.298;10.008;2023-03-18T12:32:25;17.50;98.10
35962;DHT22;22044;48.298;10.008;2023-03-18T12:35:25;17.70;99.30
35962;DHT22;22044;48.298;10.008;2023-03-18T12:38:41;17.70;97.00
35962;DHT22;22044;48.298;10.008;2023-03-18T12:41:35;17.60;99.40
35962;DHT22;22044;48.298;10.008;2023-03-18T12:44:37;17.80;98.50
35962;DHT22;22044;48.298;10.008;2023-03-18T12:47:31;17.70;95.50
35962;DHT22;22044;48.298;10.008;2023-03-18T12:50:24;17.60;96.10
35962;DHT22;22044;48.298;10.008;2023-03-18T12:53:14;17.50;96.30
35962;DHT22;22044;48.298;10.008;2023-03-18T12:56:05;17.70;97.40
35962;DHT22;22044;48.298;10.008;2023-03-18T12:59:04;17.80;97.30
35962;DHT22;22044;48.298;10.008;2023-03-18T13:02:01;17.90;97.70
35962;DHT22;22044;48.298;10.008;2023-03-18T13:04:52;17.70;97.60
35962;DHT22;22044;48.298;10.008;2023-03-18T13:07:43;17.70;99.80
35962;DHT22;22044;48.298;10.008;2023-03-18T13:10:35;17.80;98.60
35962;DHT22;22044;48.298;10.008;2023-03-18T13:13:21;17.90;99.60
35962;DHT22;22044;48.298;10.008;2023-03-18T13:16:10;17.80;97.80
35962;DHT22;22044;48.298;10.008;2023-03-18T13:18:58;17.90;98.20
35962;DHT22;22044;48.298;10.008;2023-03-18T13:21:48;17.80;96.60
35962;DHT22;22044;48.298;10.008;2023-03-18T13:24:52;17.80;96.20
35962;DHT22;22044;48.298;10.008;2023-03-18T13:27:50;17.80;96.40
35962;DHT22;22044;48.298;10.008;2023-03-18T13:30:48;17.90;97.30
35962;DHT22;22044;48.298;10.008;2023-03-18T13:34:02;18.00;96.40
35962;DHT22;22044;48.298;10.008;2023-03-18T13:37:04;18.10;97.20
35962;DHT22;22044;48.298;10.008;2023-03-18T13:40:34;18.10;97.00
35962;DHT22;22044;48.298;10.008;2023-03-18T13:43:23;18.20;96.70
35962;DHT22;22044;48.298;10.008;2023-03-18T13:46:17;18.30;96.80
35962;DHT22;22044;48.298;10.008;2023-03-18T13:49:11;18.30;96.60
35962;DHT22;22044;48.298;10.008;2023-03-18T13:52:02;18.10;96.20
35962;DHT22;22044;48.298;10.008;2023-03-18T13:54:48;18.10;96.20
35962;DHT22;22044;48.298;10.008;2023-03-18T13:57:45;18.20;97.30
35962;DHT22;22044;48.298;10.008;2023-03-18T14:00:32;18.20;94.10
35962;DHT22;22044;48.298;10.008;2023-03-18T14:03:19;18.30;94.20
35962;DHT22;22044;48.298;10.008;2023-03-18T14:06:21;18.40;95.70
35962;DHT22;22044;48.298;10.008;2023-03-18T14:09:31;18.40;94.40
35962;DHT22;22044;48.298;10.008;2023-03-18T14:12:20;18.40;95.60
35962;DHT22;22044;48.298;10.008;2023-03-18T14:15:39;18.30;95.00
35962;DHT22;22044;48.298;10.008;2023-03-18T14:18:32;18.20;97.00
35962;DHT22;22044;48.298;10.008;2023-03-18T14:21:25;18.10;95.40
35962;DHT22;22044;48.298;10.008;2023-03-18T14:24:12;18.10;97.30
35962;DHT22;22044;48.298;10.008;2023-03-18T14:27:11;18.20;95.90
35962;DHT22;22044;48.298;10.008;2023-03-18T14:30:39;18.10;94.90
35962;DHT22;22044;48.298;10.008;2023-03-18T14:37:19;17.80;95.30
35962;DHT22;22044;48.298;10.008;2023-03-18T14:40:13;17.70;96.80
35962;DHT22;22044;48.298;10.008;2023-03-18T14:43:01;17.80;96.10
35962;DHT22;22044;48.298;10.008;2023-03-18T14:45:48;17.90;96.50
35962;DHT22;22044;48.298;10.008;2023-03-18T14:48:36;18.00;95.80
35962;DHT22;22044;48.298;10.008;2023-03-18T14:51:24;18.10;95.90
35962;DHT22;22044;48.298;10.008;2023-03-18T14:54:18;18.30;96.60
35962;DHT22;22044;48.298;10.008;2023-03-18T14:57:06;18.30;94.70
35962;DHT22;22044;48.298;10.008;2023-03-18T14:59:52;18.30;95.90
35962;DHT22;22044;48.298;10.008;2023-03-18T15:02:39;18.30;94.80
35962;DHT22;22044;48.298;10.008;2023-03-18T15:05:32;18.40;94.10
35962;DHT22;22044;48.298;10.008;2023-03-18T15:08:21;18.40;94.20
35962;DHT22;22044;48.298;10.008;2023-03-18T15:11:10;18.10;93.20
35962;DHT22;22044;48.298;10.008;2023-03-18T15:13:58;18.00;91.40
35962;DHT22;22044;48.298;10.008;2023-03-18T15:16:48;18.00;91.90
35962;DHT22;22044;48.298;10.008;2023-03-18T15:19:35;18.00;91.40
35962;DHT22;22044;48.298;10.008;2023-03-18T15:22:21;18.10;92.10
35962;DHT22;22044;48.298;10.008;2023-03-18T15:25:15;18.20;90.80
35962;DHT22;22044;48.298;10.008;2023-03-18T15:28:02;18.30;90.60
35962;DHT22;22044;48.298;10.008;2023-03-18T15:30:52;18.30;91.10
35962;DHT22;22044;48.298;10.008;2023-03-18T15:33:39;18.30;90.60
35962;DHT22;22044;48.298;10.008;2023-03-18T15:36:26;18.30;90.10
35962;DHT22;22044;48.298;10.008;2023-03-18T15:39:21;18.20;91.00
35962;DHT22;22044;48.298;10.008;2023-03-18T15:42:14;18.20;91.50
35962;DHT22;22044;48.298;10.008;2023-03-18T15:45:02;18.00;90.70
35962;DHT22;22044;48.298;10.008;2023-03-18T15:47:49;18.00;92.60
35962;DHT22;22044;48.298;10.008;2023-03-18T15:50:35;17.90;98.00
35962;DHT22;22044;48.298;10.008;2023-03-18T15:53:24;18.00;99.60
35962;DHT22;22044;48.298;10.008;2023-03-18T15:56:16;18.10;99.90
35962;DHT22;22044;48.298;10.008;2023-03-18T15:59:04;18.30;98.80
35962;DHT22;22044;48.298;10.008;2023-03-18T16:01:53;18.30;97.80
35962;DHT22;22044;48.298;10.008;2023-03-18T16:04:38;18.30;98.00
35962;DHT22;22044;48.298;10.008;2023-03-18T16:07:27;18.20;97.60
35962;DHT22;22044;48.298;10.008;2023-03-18T16:10:16;18.30;97.90
35962;DHT22;22044;48.298;10.008;2023-03-18T16:13:03;18.30;99.90
35962;DHT22;22044;48.298;10.008;2023-03-18T16:15:51;18.30;99.90
35962;DHT22;22044;48.298;10.008;2023-03-18T16:18:37;18.30;99.80
35962;DHT22;22044;48.298;10.008;2023-03-18T16:21:22;18.20;98.80
35962;DHT22;22044;48.298;10.008;2023-03-18T16:24:08;18.20;97.80
35962;DHT22;22044;48.298;10.008;2023-03-18T16:26:56;18.20;96.60
35962;DHT22;22044;48.298;10.008;2023-03-18T16:29:42;18.20;98.10
35962;DHT22;22044;48.298;10.008;2023-03-18T16:32:27;18.10;99.90
35962;DHT22;22044;48.298;10.008;2023-03-18T16:35:14;17.90;99.90
35962;DHT22;22044;48.298;10.008;2023-03-18T16:38:00;17.80;99.90
35962;DHT22;22044;48.298;10.008;2023-03-18T16:40:46;17.60;99.90
35962;DHT22;22044;48.298;10.008;2023-03-18T16:43:33;17.50;99.80
35962;DHT22;22044;48.298;10.008;2023-03-18T16:46:19;17.40;98.40
35962;DHT22;22044;48.298;10.008;2023-03-18T16:49:15;17.40;97.50
35962;DHT22;22044;48.298;10.008;2023-03-18T16:52:02;17.20;99.30
35962;DHT22;22044;48.298;10.008;2023-03-18T16:54:48;17.00;99.00
35962;DHT22;22044;48.298;10.008;2023-03-18T16:57:34;17.00;98.30
35962;DHT22;22044;48.298;10.008;2023-03-18T17:00:24;16.90;96.90
35962;DHT22;22044;48.298;10.008;2023-03-18T17:03:14;16.90;97.80
35962;DHT22;22044;48.298;10.008;2023-03-18T17:06:01;16.80;98.00
35962;DHT22;22044;48.298;10.008;2023-03-18T17:08:46;16.70;98.30
35962;DHT22;22044;48.298;10.008;2023-03-18T17:11:32;16.50;97.40
35962;DHT22;22044;48.298;10.008;2023-03-18T17:14:29;16.30;97.70
35962;DHT22;22044;48.298;10.008;2023-03-18T17:17:20;16.10;98.80
35962;DHT22;22044;48.298;10.008;2023-03-18T17:20:15;15.90;99.60
35962;DHT22;22044;48.298;10.008;2023-03-18T17:23:01;15.60;99.90
35962;DHT22;22044;48.298;10.008;2023-03-18T17:25:49;15.20;99.90
35962;DHT22;22044;48.298;10.008;2023-03-18T17:28:37;15.00;99.90
35962;DHT22;22044;48.298;10.008;2023-03-18T17:31:26;14.80;99.90
35962;DHT22;22044;48.298;10.008;2023-03-18T17:34:13;14.80;99.90
35962;DHT22;22044;48.298;10.008;2023-03-18T17:36:58;14.80;99.90
35962;DHT22;22044;48.298;10.008;2023-03-18T17:39:44;14.70;99.90
35962;DHT22;22044;48.298;10.008;2023-03-18T17:42:31;14.80;99.90
35962;DHT22;22044;48.298;10.008;2023-03-18T17:45:23;14.90;99.90
35962;DHT22;22044;48.298;10.008;2023-03-18T17:48:14;14.90;99.90
35962;DHT22;22044;48.298;10.008;2023-03-18T17:51:04;14.90;99.90
35962;DHT22;22044;48.298;10.008;2023-03-18T17:53:54;14.90;99.90